Time;durP1;ratioP1;P1;durP2;ratioP2;P2;SDS_P1;SDS_P2;PMS_P1;PMS_P2;Temp;Humidity;BMP_temperature;BMP_pressure;BME280_temperature;BME280_humidity;BME280_pressure;Samples;Min_cycle;Max_cycle;Signal;HPM_P1;HPM_P2
2021/07/06 00:00:40;;;;;;;6.35;3.85;;;;;;;28.38;38.68;99387.72;4499444;31;33512;-62
2021/07/06 00:03:07;;;;;;;8.23;3.40;;;;;;;28.37;39.00;99386.91;4499587;31;34136;-63
2021/07/06 00:05:36;;;;;;;7.20;3.30;;;;;;;28.36;38.80;99392.69;4499409;31;33875;-62
2021/07/06 00:08:04;;;;;;;7.80;3.62;;;;;;;28.35;38.66;99394.59;4499446;31;33931;-63
2021/07/06 00:10:32;;;;;;;10.38;3.87;;;;;;;28.35;39.04;99389.13;4499393;31;34087;-63
2021/07/06 00:12:59;;;;;;;5.05;3.17;;;;;;;28.35;39.24;99391.84;4499211;31;34061;-62
2021/07/06 00:15:27;;;;;;;8.57;3.50;;;;;;;28.36;39.24;99395.44;4499270;31;34142;-62
2021/07/06 00:17:55;;;;;;;6.43;3.50;;;;;;;28.35;38.90;99397.34;4499381;31;33726;-62
2021/07/06 00:20:26;;;;;;;7.10;3.33;;;;;;;28.33;38.91;99394.00;4499042;31;34209;-62
2021/07/06 00:22:57;;;;;;;6.55;3.80;;;;;;;28.35;39.03;99405.56;4495385;31;33698;-63
2021/07/06 00:25:25;;;;;;;7.35;3.50;;;;;;;28.34;38.67;99403.06;4499179;31;34606;-63
2021/07/06 00:27:53;;;;;;;8.95;3.85;;;;;;;28.32;38.76;99399.75;4499016;31;33387;-63
2021/07/06 00:30:20;;;;;;;6.75;3.72;;;;;;;28.32;38.99;99402.50;4483881;31;33884;-63
2021/07/06 00:32:48;;;;;;;8.45;3.50;;;;;;;28.32;39.02;99400.59;4496899;31;34223;-63
2021/07/06 00:35:16;;;;;;;7.82;3.40;;;;;;;28.31;39.17;99403.59;4498844;31;34302;-63
2021/07/06 00:37:44;;;;;;;6.72;3.40;;;;;;;28.32;39.24;99405.25;4498885;31;33014;-63
2021/07/06 00:40:13;;;;;;;7.32;3.35;;;;;;;28.31;38.83;99398.94;4499949;31;34396;-63
2021/07/06 00:42:41;;;;;;;6.05;3.62;;;;;;;28.30;38.64;99400.00;4500857;31;34132;-62
2021/07/06 00:45:10;;;;;;;7.50;3.58;;;;;;;28.30;38.58;99399.19;4500812;31;34564;-63
2021/07/06 00:47:38;;;;;;;7.50;3.28;;;;;;;28.30;39.07;99396.44;4500993;31;32962;-63
2021/07/06 00:50:08;;;;;;;8.55;3.90;;;;;;;28.30;39.04;99401.94;4486575;31;33870;-62
2021/07/06 00:52:36;;;;;;;5.95;3.37;;;;;;;28.29;38.83;99403.03;4500932;31;33975;-63
2021/07/06 00:55:07;;;;;;;7.22;3.78;;;;;;;28.29;38.92;99406.59;4500983;31;34868;-62
2021/07/06 00:57:34;;;;;;;6.93;3.87;;;;;;;28.28;39.08;99409.62;4500838;31;33741;-62
2021/07/06 01:00:13;;;;;;;6.72;3.30;;;;;;;28.29;39.12;99409.34;4486530;31;33970;-63
2021/07/06 01:02:41;;;;;;;10.52;3.45;;;;;;;28.29;38.93;99414.00;4500594;31;34937;-62
2021/07/06 01:05:10;;;;;;;7.00;4.00;;;;;;;28.27;37.86;99408.81;4500850;31;34136;-63
2021/07/06 01:07:38;;;;;;;8.57;4.50;;;;;;;28.22;37.16;99412.34;4500774;31;33661;-64
2021/07/06 01:10:06;;;;;;;8.32;3.87;;;;;;;28.21;37.03;99415.34;4500593;31;34898;-63
2021/07/06 01:12:34;;;;;;;6.82;3.83;;;;;;;28.16;37.01;99409.84;4496748;31;34632;-63
2021/07/06 01:15:04;;;;;;;6.10;3.42;;;;;;;28.12;37.14;99411.47;4500952;31;34290;-63
2021/07/06 01:17:32;;;;;;;5.65;3.72;;;;;;;28.07;37.29;99400.47;4500782;31;34168;-64
2021/07/06 01:20:14;;;;;;;7.87;3.85;;;;;;;28.03;37.54;99394.72;4486330;31;34889;-63
2021/07/06 01:22:43;;;;;;;6.00;3.78;;;;;;;28.00;37.29;99405.38;4500635;31;34048;-63
2021/07/06 01:25:11;;;;;;;5.55;3.85;;;;;;;27.96;37.57;99399.59;4500612;31;34726;-63
2021/07/06 01:27:38;;;;;;;5.15;3.60;;;;;;;27.92;37.38;99387.50;4500776;31;33100;-64
2021/07/06 01:30:09;;;;;;;7.80;3.72;;;;;;;27.90;37.39;99386.97;4500256;31;34453;-64
2021/07/06 01:32:44;;;;;;;5.80;3.90;;;;;;;27.87;37.29;99390.22;4500639;31;33966;-63
2021/07/06 01:35:13;;;;;;;6.85;3.50;;;;;;;27.84;37.43;99391.59;4500470;31;33880;-63
2021/07/06 01:37:45;;;;;;;8.20;3.47;;;;;;;27.82;37.55;99391.03;4486354;31;33467;-63
2021/07/06 01:40:14;;;;;;;7.62;3.58;;;;;;;27.81;37.36;99389.38;4500542;31;34071;-63
2021/07/06 01:42:42;;;;;;;6.87;3.87;;;;;;;27.79;37.54;99385.25;4500384;31;33976;-63
2021/07/06 01:45:17;;;;;;;5.47;3.45;;;;;;;27.76;37.70;99388.53;4500580;31;34172;-63
2021/07/06 01:47:46;;;;;;;5.30;3.45;;;;;;;27.74;37.75;99386.03;4500619;31;33590;-63
2021/07/06 01:50:19;;;;;;;7.30;3.92;;;;;;;27.72;37.70;99393.72;4500153;31;33741;-62
2021/07/06 01:52:49;;;;;;;5.68;3.55;;;;;;;27.70;37.74;99401.34;4500041;31;34101;-63
2021/07/06 01:55:18;;;;;;;5.97;3.92;;;;;;;27.68;37.62;99401.59;4500024;31;33824;-63
2021/07/06 01:57:47;;;;;;;6.10;3.85;;;;;;;27.65;37.59;99395.81;4500493;31;34361;-63
2021/07/06 02:00:18;;;;;;;7.45;3.83;;;;;;;27.64;37.68;99391.44;4500487;31;35121;-63
2021/07/06 02:02:45;;;;;;;5.60;3.67;;;;;;;27.61;37.68;99397.47;4500402;31;33734;-62
2021/07/06 02:05:19;;;;;;;5.60;3.85;;;;;;;27.59;37.64;99403.19;4486411;31;33876;-63
2021/07/06 02:07:47;;;;;;;8.07;3.60;;;;;;;27.57;37.74;99390.84;4490973;31;34586;-63
2021/07/06 02:10:16;;;;;;;7.10;3.87;;;;;;;27.56;37.80;99383.69;4484637;32;33915;-63
2021/07/06 02:13:02;;;;;;;8.35;3.70;;;;;;;27.53;37.85;99392.47;4484442;32;34229;-64
2021/07/06 02:15:30;;;;;;;7.03;3.83;;;;;;;27.51;37.91;99389.97;4484602;32;34066;-63
2021/07/06 02:17:58;;;;;;;5.82;3.70;;;;;;;27.49;38.04;99383.94;4484857;32;33030;-63
2021/07/06 02:20:25;;;;;;;6.87;3.60;;;;;;;27.48;37.99;99389.69;4484251;32;34076;-63
2021/07/06 02:22:53;;;;;;;5.97;3.50;;;;;;;27.45;38.17;99394.59;4484742;32;34804;-63
2021/07/06 02:25:21;;;;;;;5.18;3.65;;;;;;;27.44;38.06;99394.88;4484542;32;34037;-63
2021/07/06 02:27:48;;;;;;;10.30;3.72;;;;;;;27.41;37.95;99404.41;4484335;32;33694;-63
2021/07/06 02:30:21;;;;;;;6.32;4.20;;;;;;;27.41;38.13;99400.84;4484402;32;34110;-64
2021/07/06 02:32:49;;;;;;;6.03;3.70;;;;;;;27.39;38.17;99397.56;4484480;32;34002;-63
2021/07/06 02:35:16;;;;;;;7.07;3.75;;;;;;;27.36;38.30;99404.38;4484278;32;34169;-63
2021/07/06 02:37:44;;;;;;;7.47;4.12;;;;;;;27.32;38.15;99400.50;4484505;32;33328;-63
2021/07/06 02:40:13;;;;;;;6.50;3.62;;;;;;;27.29;38.21;99401.06;4484359;32;33767;-63
2021/07/06 02:42:41;;;;;;;7.47;3.75;;;;;;;27.29;38.18;99403.78;4484303;32;34773;-63
2021/07/06 02:45:10;;;;;;;7.43;3.75;;;;;;;27.28;38.21;99401.28;4484172;32;34146;-63
2021/07/06 02:47:38;;;;;;;6.50;3.40;;;;;;;27.27;38.28;99403.22;4484374;32;33181;-63
2021/07/06 02:50:07;;;;;;;5.97;3.78;;;;;;;27.25;38.30;99405.41;4484124;32;34946;-63
2021/07/06 02:52:34;;;;;;;7.85;3.85;;;;;;;27.23;38.30;99404.00;4484380;32;33567;-63
2021/07/06 02:55:06;;;;;;;7.55;3.83;;;;;;;27.22;38.36;99403.19;4488574;31;33972;-63
2021/07/06 02:57:34;;;;;;;5.30;3.47;;;;;;;27.20;38.37;99395.22;4486175;31;34268;-63
2021/07/06 03:00:09;;;;;;;6.15;3.50;;;;;;;27.18;38.45;99399.31;4499843;31;33906;-63
2021/07/06 03:02:37;;;;;;;5.72;4.00;;;;;;;27.17;38.43;99400.41;4499512;31;34083;-63
2021/07/06 03:05:09;;;;;;;8.13;3.97;;;;;;;27.14;38.46;99404.50;4499948;31;35129;-63
2021/07/06 03:07:37;;;;;;;7.43;3.75;;;;;;;27.13;38.49;99394.59;4499876;31;33350;-63
2021/07/06 03:10:06;;;;;;;6.55;3.55;;;;;;;27.13;38.41;99396.53;4500052;31;33953;-63
2021/07/06 03:12:33;;;;;;;12.37;3.90;;;;;;;27.10;38.52;99400.63;4500075;31;33677;-64
2021/07/06 03:15:01;;;;;;;10.10;3.37;;;;;;;27.11;38.53;99407.75;4500004;31;33937;-63
2021/07/06 03:17:29;;;;;;;7.05;3.55;;;;;;;27.11;38.42;99396.78;4500035;31;33431;-62
2021/07/06 03:19:58;;;;;;;7.50;3.65;;;;;;;27.08;38.52;99400.03;4499903;31;35542;-63
2021/07/06 03:22:25;;;;;;;6.30;3.28;;;;;;;27.07;38.51;99400.28;4499792;31;34887;-63
2021/07/06 03:24:53;;;;;;;6.28;3.50;;;;;;;27.08;38.53;99408.25;4499924;31;34336;-64
2021/07/06 03:27:20;;;;;;;6.90;3.60;;;;;;;27.05;38.50;99411.50;4499831;31;33476;-63
2021/07/06 03:29:49;;;;;;;8.93;3.75;;;;;;;27.04;38.60;99415.31;4499744;31;33641;-63
2021/07/06 03:32:17;;;;;;;6.03;3.95;;;;;;;27.04;38.52;99418.03;4499788;31;35122;-64
2021/07/06 03:34:45;;;;;;;5.28;3.42;;;;;;;27.04;38.72;99418.03;4499860;31;34704;-63
2021/07/06 03:37:12;;;;;;;7.03;3.72;;;;;;;27.03;38.57;99407.37;4499574;31;33638;-63
2021/07/06 03:39:40;;;;;;;5.87;4.05;;;;;;;27.02;38.61;99406.53;4499746;31;33854;-63
2021/07/06 03:42:08;;;;;;;5.12;3.30;;;;;;;27.01;38.55;99401.34;4499702;31;35110;-63
2021/07/06 03:44:37;;;;;;;6.97;3.62;;;;;;;27.00;38.62;99406.00;4499467;31;33961;-63
2021/07/06 03:47:04;;;;;;;5.85;3.58;;;;;;;27.00;38.65;99416.94;4499660;31;33406;-62
2021/07/06 03:49:32;;;;;;;6.53;3.70;;;;;;;26.99;38.75;99406.22;4499652;31;34056;-63
2021/07/06 03:52:01;;;;;;;12.30;3.78;;;;;;;26.98;39.06;99416.34;4485304;31;33866;-63
2021/07/06 03:54:28;;;;;;;6.80;3.47;;;;;;;26.99;39.48;99414.44;4499658;31;34671;-62
2021/07/06 03:56:56;;;;;;;9.75;3.78;;;;;;;27.00;39.34;99416.09;4499572;31;34217;-64
2021/07/06 03:59:24;;;;;;;9.82;3.85;;;;;;;27.02;39.28;99413.94;4499268;31;34653;-63
2021/07/06 04:01:51;;;;;;;10.70;3.85;;;;;;;27.05;39.37;99416.16;4499802;31;34111;-62
2021/07/06 04:04:19;;;;;;;9.77;3.53;;;;;;;27.07;39.24;99414.78;4498309;31;33999;-62
2021/07/06 04:06:46;;;;;;;7.97;3.53;;;;;;;27.09;39.21;99409.94;4487850;31;33270;-62
2021/07/06 04:09:14;;;;;;;13.77;4.03;;;;;;;27.12;39.26;99419.53;4492445;31;33708;-62
2021/07/06 04:11:42;;;;;;;16.55;3.47;;;;;;;27.16;39.32;99413.28;4483647;32;33625;-62
2021/07/06 04:14:10;;;;;;;13.90;3.58;;;;;;;27.19;39.40;99414.66;4491863;31;34605;-62
2021/07/06 04:16:38;;;;;;;10.32;4.05;;;;;;;27.21;39.43;99416.03;4499317;31;33113;-62
2021/07/06 04:19:09;;;;;;;9.50;3.70;;;;;;;27.24;39.45;99422.09;4499346;31;34171;-62
2021/07/06 04:21:36;;;;;;;11.70;3.58;;;;;;;27.27;39.46;99410.59;4499097;31;34940;-62
2021/07/06 04:24:04;;;;;;;8.77;3.75;;;;;;;27.28;39.54;99426.81;4499156;31;34254;-62
2021/07/06 04:26:31;;;;;;;12.82;3.58;;;;;;;27.30;39.54;99421.06;4499120;31;33841;-62
2021/07/06 04:28:59;;;;;;;6.60;3.58;;;;;;;27.32;39.47;99421.59;4498974;31;34654;-62
2021/07/06 04:31:26;;;;;;;7.80;3.80;;;;;;;27.35;39.46;99419.19;4499137;31;34069;-62
2021/07/06 04:33:54;;;;;;;10.98;3.92;;;;;;;27.37;39.45;99430.72;4499293;31;34670;-63
2021/07/06 04:36:21;;;;;;;12.88;3.85;;;;;;;27.38;39.45;99426.88;4499157;31;34163;-62
2021/07/06 04:38:49;;;;;;;10.60;3.58;;;;;;;27.39;39.45;99427.72;4499110;31;33267;-62
2021/07/06 04:41:17;;;;;;;8.45;3.60;;;;;;;27.41;39.48;99429.06;4498991;31;34196;-62
2021/07/06 04:43:44;;;;;;;9.38;3.83;;;;;;;27.42;39.54;99424.44;4498848;31;34182;-62
2021/07/06 04:46:11;;;;;;;10.20;3.30;;;;;;;27.43;39.61;99435.13;4499229;31;34228;-62
2021/07/06 04:48:39;;;;;;;13.68;3.50;;;;;;;27.44;39.63;99439.53;4498785;31;34036;-63
2021/07/06 04:51:09;;;;;;;8.70;3.58;;;;;;;27.46;39.70;99436.50;4498719;31;33938;-62
2021/07/06 04:53:38;;;;;;;8.88;4.25;;;;;;;27.46;39.74;99431.84;4498845;31;34863;-62
2021/07/06 04:56:06;;;;;;;;;;;;;;;27.49;39.74;99438.75;4498832;31;34666;-62
2021/07/06 04:58:35;;;;;;;8.73;3.47;;;;;;;27.60;39.58;99440.44;4498732;31;34385;-65
2021/07/06 05:01:04;;;;;;;7.90;3.58;;;;;;;27.52;39.80;99445.63;4498708;31;35658;-62
2021/07/06 05:03:32;;;;;;;9.75;3.45;;;;;;;27.52;39.83;99437.41;4484595;31;34118;-62
2021/07/06 05:05:59;;;;;;;7.03;3.10;;;;;;;27.51;39.89;99447.50;4482670;32;34648;-62
2021/07/06 05:08:27;;;;;;;10.45;3.58;;;;;;;27.52;39.90;99446.44;4481494;32;34836;-62
2021/07/06 05:10:56;;;;;;;8.73;3.22;;;;;;;27.53;39.93;99448.09;4482573;32;33853;-62
2021/07/06 05:13:24;;;;;;;6.00;3.20;;;;;;;27.54;39.96;99457.12;4481441;32;34271;-62
2021/07/06 05:15:52;;;;;;;6.28;3.30;;;;;;;27.54;39.97;99448.91;4482776;32;33337;-62
2021/07/06 05:18:22;;;;;;;7.60;3.40;;;;;;;27.56;40.00;99454.94;4482455;32;33931;-62
2021/07/06 05:20:50;;;;;;;8.73;3.35;;;;;;;27.55;40.07;99456.03;4482601;32;34704;-62
2021/07/06 05:23:17;;;;;;;8.18;4.15;;;;;;;27.56;40.15;99463.16;4482849;32;34072;-62
2021/07/06 05:25:45;;;;;;;9.40;3.28;;;;;;;27.56;40.19;99466.75;4483401;32;33654;-62
2021/07/06 05:28:12;;;;;;;6.40;3.30;;;;;;;27.57;40.14;99468.41;4485091;32;34728;-62
2021/07/06 05:30:40;;;;;;;5.37;3.03;;;;;;;27.58;40.18;99467.31;4484857;32;34317;-62
2021/07/06 05:33:07;;;;;;;7.87;3.30;;;;;;;27.60;40.17;99472.53;4484731;32;34557;-62
2021/07/06 05:35:35;;;;;;;7.75;3.67;;;;;;;27.60;40.16;99470.59;4485128;32;33415;-62
2021/07/06 05:38:03;;;;;;;6.22;2.97;;;;;;;27.62;40.19;99467.63;4484871;32;33986;-62
2021/07/06 05:40:32;;;;;;;10.68;4.53;;;;;;;27.63;40.20;99474.75;4484758;32;34308;-62
2021/07/06 05:43:00;;;;;;;13.05;3.92;;;;;;;27.63;40.33;99472.81;4484755;32;34052;-63
2021/07/06 05:45:27;;;;;;;10.82;3.87;;;;;;;27.64;40.43;99469.00;4483808;31;33551;-63
2021/07/06 05:47:55;;;;;;;8.63;3.17;;;;;;;27.64;40.62;99471.72;4491030;31;33908;-63
2021/07/06 05:50:22;;;;;;;11.57;3.25;;;;;;;27.66;40.55;99480.53;4472295;31;34290;-62
2021/07/06 05:52:50;;;;;;;7.62;3.40;;;;;;;27.68;40.47;99475.59;4490330;31;34083;-62
2021/07/06 05:55:17;;;;;;;6.65;2.92;;;;;;;27.68;40.38;99475.59;4484402;32;33240;-63
2021/07/06 05:57:45;;;;;;;6.15;3.17;;;;;;;27.68;40.29;99486.56;4484671;32;33481;-63
2021/07/06 06:00:14;;;;;;;5.05;3.10;;;;;;;27.69;40.25;99484.66;4484843;32;34007;-63
2021/07/06 06:02:47;;;;;;;7.15;3.08;;;;;;;27.68;40.16;99481.09;4490395;31;33035;-63
2021/07/06 06:05:14;;;;;;;7.40;3.00;;;;;;;27.70;40.18;99480.84;4499095;31;34056;-62
2021/07/06 06:07:42;;;;;;;5.30;3.15;;;;;;;27.69;40.07;99473.69;4499214;31;34604;-62
2021/07/06 06:10:11;;;;;;;7.68;3.22;;;;;;;27.69;40.07;99485.47;4500421;31;34340;-62
2021/07/06 06:12:38;;;;;;;6.70;2.90;;;;;;;27.69;39.96;99488.22;4500231;31;34186;-63
2021/07/06 06:15:06;;;;;;;8.88;2.87;;;;;;;27.70;39.94;99489.06;4496552;31;32535;-65
2021/07/06 06:17:35;;;;;;;7.53;2.90;;;;;;;27.69;39.91;99496.44;4497234;31;35444;-63
2021/07/06 06:20:06;;;;;;;10.30;2.78;;;;;;;27.70;39.89;99502.78;4500046;31;34296;-62
2021/07/06 06:22:34;;;;;;;6.45;3.03;;;;;;;27.70;39.91;99498.13;4498644;31;33834;-62
2021/07/06 06:25:08;;;;;;;8.82;3.33;;;;;;;27.71;39.90;99497.06;4500214;31;33534;-63
2021/07/06 06:27:36;;;;;;;7.40;2.70;;;;;;;27.71;39.93;99497.06;4499360;31;33866;-62
2021/07/06 06:30:04;;;;;;;6.82;3.00;;;;;;;27.71;39.95;99488.81;4499334;31;34732;-63
2021/07/06 06:32:32;;;;;;;6.10;2.42;;;;;;;27.73;40.02;99490.47;4498484;31;34096;-63
2021/07/06 06:34:59;;;;;;;6.47;2.87;;;;;;;27.73;39.96;99490.47;4500080;31;33505;-63
2021/07/06 06:37:27;;;;;;;6.32;2.83;;;;;;;27.74;40.05;99486.62;4499460;31;33756;-60
2021/07/06 06:39:54;;;;;;;7.03;3.30;;;;;;;27.75;40.08;99489.13;4499506;31;34095;-61
2021/07/06 06:42:22;;;;;;;8.23;2.97;;;;;;;27.75;40.20;99489.13;4500213;31;33115;-61
2021/07/06 06:44:49;;;;;;;6.10;3.03;;;;;;;27.76;40.24;99496.25;4499992;31;33258;-61
2021/07/06 06:47:18;;;;;;;6.97;3.12;;;;;;;27.75;40.27;99489.13;4500100;31;34003;-62
2021/07/06 06:49:45;;;;;;;8.88;2.80;;;;;;;27.75;40.29;99502.84;4492682;31;34183;-63
2021/07/06 06:52:12;;;;;;;6.70;2.78;;;;;;;27.77;40.23;99495.16;4484280;32;33868;-62
2021/07/06 06:54:40;;;;;;;9.32;2.90;;;;;;;27.77;40.29;99492.44;4484329;32;33366;-62
2021/07/06 06:57:08;;;;;;;8.25;3.00;;;;;;;27.77;40.28;99497.91;4484043;32;33897;-62
2021/07/06 07:02:21;;;;;;;10.30;3.28;;;;;;;27.83;40.14;99501.50;4484238;31;33987;-63
2021/07/06 07:04:51;;;;;;;6.65;2.53;;;;;;;27.84;39.97;99504.00;4484354;32;33982;-62
2021/07/06 07:07:19;;;;;;;5.70;2.75;;;;;;;27.84;39.95;99503.16;4484027;32;33823;-62
2021/07/06 07:09:48;;;;;;;9.68;3.00;;;;;;;27.86;39.88;99498.25;4490668;31;34588;-62
2021/07/06 07:12:16;;;;;;;9.13;3.37;;;;;;;27.86;39.75;99501.00;4500122;31;34640;-62
2021/07/06 07:14:44;;;;;;;8.13;2.53;;;;;;;27.86;39.72;99504.56;4498256;31;33196;-62
2021/07/06 07:17:12;;;;;;;4.37;2.30;;;;;;;27.88;39.69;99496.88;4499625;31;33888;-63
2021/07/06 07:19:39;;;;;;;7.43;2.90;;;;;;;27.89;39.57;99493.06;4499782;31;34105;-62
2021/07/06 07:22:07;;;;;;;6.95;2.62;;;;;;;27.91;39.62;99501.84;4499831;31;34620;-63
2021/07/06 07:24:35;;;;;;;6.87;2.72;;;;;;;27.91;39.58;99499.09;4487658;31;33465;-63
2021/07/06 07:27:04;;;;;;;6.70;2.65;;;;;;;27.92;39.57;99498.00;4469829;32;33821;-63
2021/07/06 07:29:31;;;;;;;5.78;2.42;;;;;;;27.94;39.59;99495.03;4483984;32;34054;-62
2021/07/06 07:31:59;;;;;;;4.15;2.30;;;;;;;27.96;39.51;99498.31;4483869;32;33853;-63
2021/07/06 07:34:26;;;;;;;10.05;2.47;;;;;;;27.97;39.42;99502.72;4494495;31;33639;-62
2021/07/06 07:36:54;;;;;;;9.88;2.70;;;;;;;27.99;39.51;99500.53;4499427;31;34476;-62
2021/07/06 07:39:22;;;;;;;6.82;2.47;;;;;;;27.99;39.50;99506.03;4499720;31;33982;-62
2021/07/06 07:41:49;;;;;;;4.90;2.50;;;;;;;28.00;39.32;99504.94;4485274;31;34277;-62
2021/07/06 07:44:16;;;;;;;27.23;2.67;;;;;;;28.04;39.12;99505.22;4490022;31;34862;-63
2021/07/06 07:46:46;;;;;;;7.70;2.30;;;;;;;28.03;39.20;99503.59;4483777;31;34463;-62
2021/07/06 07:49:14;;;;;;;6.00;2.50;;;;;;;28.05;39.34;99498.66;4482583;32;34021;-63
2021/07/06 07:51:41;;;;;;;6.37;2.22;;;;;;;28.07;39.12;99504.69;4483850;32;33169;-64
2021/07/06 07:54:09;;;;;;;7.35;2.47;;;;;;;28.08;39.09;99503.63;4491812;31;33400;-63
2021/07/06 07:56:37;;;;;;;5.30;2.17;;;;;;;28.07;39.03;99504.69;4499583;31;33858;-62
2021/07/06 07:59:04;;;;;;;7.70;2.37;;;;;;;28.09;39.01;99495.12;4499626;31;34315;-62
2021/07/06 08:01:32;;;;;;;8.93;2.97;;;;;;;28.09;38.99;99497.84;4499357;31;34199;-63
2021/07/06 08:04:00;;;;;;;4.60;2.20;;;;;;;28.11;39.09;99500.31;4491956;31;33388;-63
2021/07/06 08:06:28;;;;;;;5.22;2.10;;;;;;;28.10;39.10;99499.50;4484416;31;34066;-63
2021/07/06 08:08:55;;;;;;;6.60;2.30;;;;;;;28.11;39.10;99503.06;4483483;32;34059;-63
2021/07/06 08:11:23;;;;;;;7.95;2.10;;;;;;;28.11;39.13;99503.88;4484023;32;34602;-63
2021/07/06 08:13:50;;;;;;;4.78;2.05;;;;;;;28.13;39.06;99503.66;4488131;31;34232;-63
2021/07/06 08:16:18;;;;;;;3.55;1.90;;;;;;;28.12;39.13;99504.72;4499286;31;33828;-63
2021/07/06 08:18:46;;;;;;;5.62;2.10;;;;;;;28.12;38.95;99507.47;4499321;31;34897;-63
2021/07/06 08:21:14;;;;;;;3.53;2.10;;;;;;;28.13;39.09;99498.97;4499411;31;33872;-69
2021/07/06 08:23:41;;;;;;;4.15;1.75;;;;;;;28.13;39.08;99500.91;4493195;31;33746;-71
2021/07/06 08:26:09;;;;;;;5.07;2.37;;;;;;;28.17;38.81;99497.37;4483411;31;33898;-72
2021/07/06 08:28:36;;;;;;;7.25;1.95;;;;;;;28.17;38.85;99497.37;4483267;32;33710;-71
2021/07/06 08:31:04;;;;;;;8.73;2.28;;;;;;;28.17;38.95;99493.81;4469157;32;34785;-72
2021/07/06 08:33:32;;;;;;;6.45;2.40;;;;;;;28.18;39.01;99489.97;4487100;31;33693;-70
2021/07/06 08:35:59;;;;;;;8.52;2.00;;;;;;;28.18;38.95;99493.53;4498823;31;34915;-71
2021/07/06 08:38:27;;;;;;;5.45;2.40;;;;;;;28.18;38.93;99490.78;4498631;31;34098;-71
2021/07/06 08:40:54;;;;;;;6.18;2.15;;;;;;;28.19;38.94;99499.84;4490639;31;34477;-69
2021/07/06 08:43:22;;;;;;;5.70;1.95;;;;;;;28.19;38.97;99497.09;4498971;31;33374;-71
2021/07/06 08:45:49;;;;;;;6.72;1.92;;;;;;;28.20;38.96;99501.47;4482335;31;34163;-71
2021/07/06 08:48:17;;;;;;;10.70;2.42;;;;;;;28.21;39.02;99498.50;4498909;31;34052;-70
2021/07/06 08:50:45;;;;;;;15.80;2.30;;;;;;;28.20;39.13;99493.25;4498349;31;34559;-69
2021/07/06 08:53:13;;;;;;;13.23;2.33;;;;;;;28.18;39.25;99498.19;4484025;31;33251;-71
2021/07/06 08:55:41;;;;;;;6.12;2.20;;;;;;;28.16;39.39;99495.69;4484314;31;33918;-70
2021/07/06 08:58:08;;;;;;;7.28;1.95;;;;;;;28.18;39.39;99500.94;4498688;31;34115;-70
2021/07/06 09:00:36;;;;;;;8.57;2.50;;;;;;;28.18;39.39;99492.69;4492518;31;34603;-70
2021/07/06 09:03:07;;;;;;;5.68;2.30;;;;;;;28.19;39.45;99497.09;4485127;32;33057;-71
2021/07/06 09:05:34;;;;;;;8.50;2.03;;;;;;;28.19;39.47;99495.16;4470975;32;34214;-71
2021/07/06 09:08:03;;;;;;;6.53;1.87;;;;;;;28.19;39.57;99489.69;4484878;32;34007;-66
2021/07/06 09:10:35;;;;;;;10.85;2.40;;;;;;;28.21;39.65;99492.16;4471695;32;33581;-72
2021/07/06 09:13:27;;;;;;;8.65;2.37;;;;;;;28.20;39.74;99490.50;4470657;32;33586;-71
2021/07/06 09:15:56;;;;;;;9.63;2.10;;;;;;;28.22;39.73;99491.09;4462347;32;33801;-72
2021/07/06 09:18:31;;;;;;;10.05;2.15;;;;;;;28.22;39.81;99493.81;4475936;31;35122;-69
2021/07/06 09:21:18;;;;;;;9.40;2.25;;;;;;;28.24;39.75;99491.63;4500724;31;33656;-70
2021/07/06 09:23:48;;;;;;;9.45;2.10;;;;;;;28.23;39.81;99490.00;4500740;31;33197;-73
2021/07/06 09:26:29;;;;;;;12.55;3.55;;;;;;;28.23;39.86;99495.47;4500699;31;33970;-72
2021/07/06 09:29:00;;;;;;;11.65;2.35;;;;;;;28.21;40.06;99493.00;4478315;32;34509;-72
2021/07/06 09:31:32;;;;;;;20.98;2.92;;;;;;;28.21;39.98;99495.75;4484811;32;34549;-72
2021/07/06 09:34:09;;;;;;;9.10;2.17;;;;;;;28.20;40.09;99491.31;4484659;32;33029;-72
2021/07/06 09:36:43;;;;;;;10.52;2.58;;;;;;;28.22;39.95;99493.81;4470536;32;33342;-71
2021/07/06 09:39:13;;;;;;;9.05;2.20;;;;;;;28.22;39.92;99497.41;4494301;31;33990;-72
2021/07/06 09:41:51;;;;;;;7.45;2.25;;;;;;;28.20;39.83;99491.31;4500347;31;33962;-72
2021/07/06 09:44:24;;;;;;;10.35;2.20;;;;;;;28.21;39.85;99493.00;4487395;31;33543;-72
2021/07/06 09:47:07;;;;;;;14.15;2.28;;;;;;;28.20;39.87;99485.84;4500434;31;34021;-72
2021/07/06 09:49:38;;;;;;;8.50;2.35;;;;;;;28.20;39.89;99491.31;4488076;31;34103;-72
2021/07/06 09:52:13;;;;;;;8.77;2.72;;;;;;;28.20;39.86;99485.84;4484587;32;33962;-66
2021/07/06 09:54:51;;;;;;;9.68;2.30;;;;;;;28.22;39.85;99482.84;4458118;32;33480;-68
2021/07/06 09:57:27;;;;;;;8.05;2.03;;;;;;;28.21;39.89;99478.44;4470549;32;33492;-71
2021/07/06 09:59:58;;;;;;;11.25;2.37;;;;;;;28.22;39.87;99483.69;4498616;31;34031;-68
2021/07/06 10:02:27;;;;;;;7.78;2.40;;;;;;;28.22;40.02;99474.63;4486160;31;33573;-66
2021/07/06 10:04:55;;;;;;;11.20;2.08;;;;;;;28.23;39.96;99479.00;4486088;31;33434;-70
2021/07/06 10:07:24;;;;;;;6.37;1.87;;;;;;;28.23;40.00;99477.09;4486230;31;33920;-71
2021/07/06 10:09:52;;;;;;;12.57;2.30;;;;;;;28.22;40.09;99471.88;4486415;31;34082;-71
2021/07/06 10:12:20;;;;;;;7.28;2.10;;;;;;;28.25;40.04;99471.31;4483697;32;34608;-72
2021/07/06 10:14:48;;;;;;;10.82;2.55;;;;;;;28.24;40.05;99464.19;4470158;32;33651;-68
2021/07/06 10:17:20;;;;;;;11.02;2.03;;;;;;;28.24;40.08;99466.94;4484159;32;33878;-72
2021/07/06 10:19:48;;;;;;;6.25;1.90;;;;;;;28.25;40.06;99467.75;4497244;31;35021;-68
2021/07/06 10:22:15;;;;;;;5.45;2.12;;;;;;;28.27;39.92;99482.06;4500301;31;34636;-67
2021/07/06 10:24:45;;;;;;;7.85;2.22;;;;;;;28.26;39.98;99478.50;4472948;31;33446;-68
2021/07/06 10:27:24;;;;;;;9.20;2.08;;;;;;;28.27;40.00;99471.09;4486445;31;34579;-67
2021/07/06 10:30:19;;;;;;;6.10;1.75;;;;;;;28.29;39.97;99480.69;4486462;31;33750;-68
2021/07/06 10:32:52;;;;;;;9.02;2.00;;;;;;;28.31;40.06;99462.03;4484437;32;34649;-67
2021/07/06 10:35:40;;;;;;;6.90;2.12;;;;;;;28.27;40.17;99441.72;4470958;32;34505;-68
2021/07/06 10:38:29;;;;;;;7.62;2.20;;;;;;;28.31;40.14;99442.03;4471999;31;34353;-65
2021/07/06 10:40:58;;;;;;;7.95;1.87;;;;;;;28.34;40.13;99444.22;4484435;31;34208;-66
2021/07/06 10:43:30;;;;;;;8.63;2.40;;;;;;;28.30;40.21;99438.41;4484321;32;33949;-70
2021/07/06 10:46:32;;;;;;;9.05;2.10;;;;;;;28.32;40.24;99460.13;4484440;32;33518;-71
2021/07/06 10:49:32;;;;;;;9.50;2.37;;;;;;;28.37;40.24;99457.44;4478101;31;33732;-68
2021/07/06 10:52:04;;;;;;;13.77;1.95;;;;;;;28.36;40.26;99456.62;4485879;31;33557;-67
2021/07/06 10:54:33;;;;;;;9.13;2.10;;;;;;;28.33;40.34;99462.59;4486163;31;34677;-71
2021/07/06 10:57:13;;;;;;;7.53;1.60;;;;;;;28.32;40.35;99458.22;4500068;31;33076;-70
2021/07/06 10:59:40;;;;;;;11.20;2.03;;;;;;;28.37;40.32;99451.94;4488171;31;34759;-67
2021/07/06 11:02:12;;;;;;;6.25;1.87;;;;;;;28.34;40.37;99455.19;4484245;32;34017;-71
2021/07/06 11:04:42;;;;;;;5.85;1.83;;;;;;;28.34;40.38;99452.44;4484083;32;35159;-68
2021/07/06 11:07:10;;;;;;;3.40;1.80;;;;;;;28.35;40.36;99440.41;4484289;32;33367;-68
2021/07/06 11:09:38;;;;;;;10.02;1.90;;;;;;;28.36;40.36;99439.31;4495008;31;34042;-68
2021/07/06 11:12:24;;;;;;;7.62;1.75;;;;;;;28.36;40.35;99442.91;4499813;31;34195;-72
2021/07/06 11:14:55;;;;;;;9.00;1.60;;;;;;;28.37;40.42;99443.72;4500066;31;34010;-71
2021/07/06 11:17:38;;;;;;;8.88;2.00;;;;;;;28.34;40.51;99442.31;4485865;31;33811;-70
2021/07/06 11:20:10;;;;;;;6.80;2.05;;;;;;;28.37;40.48;99441.78;4485778;31;34075;-69
2021/07/06 11:22:43;;;;;;;8.68;1.95;;;;;;;28.35;40.49;99444.00;4469169;32;33895;-72
2021/07/06 11:25:32;;;;;;;6.65;1.80;;;;;;;28.38;40.50;99437.13;4484107;32;33853;-70
2021/07/06 11:28:00;;;;;;;5.37;1.80;;;;;;;28.39;40.46;99438.78;4484013;31;33537;-70
2021/07/06 11:30:33;;;;;;;7.53;2.00;;;;;;;28.38;40.49;99445.34;4469985;32;34032;-70
2021/07/06 11:33:07;;;;;;;8.32;1.70;;;;;;;28.39;40.52;99444.25;4483967;32;35136;-69
2021/07/06 11:35:43;;;;;;;5.20;1.73;;;;;;;28.39;40.59;99444.25;4470101;32;34561;-72
2021/07/06 11:38:21;;;;;;;3.83;1.70;;;;;;;28.38;40.60;99432.47;4468618;32;33448;-71
2021/07/06 11:40:58;;;;;;;5.35;1.42;;;;;;;28.40;40.58;99433.03;4474607;32;33970;-71
2021/07/06 11:43:28;;;;;;;5.47;1.87;;;;;;;28.40;40.62;99427.53;4483855;32;35059;-71
2021/07/06 11:45:57;;;;;;;6.75;2.15;;;;;;;28.40;40.64;99426.72;4483947;32;34724;-71